sensor_id;sensor_type;location;lat;lon;timestamp;P1;durP1;ratioP1;P2;durP2;ratioP2
11113;SDS011;5610;52.154;9.198;2022-07-30T00:00:48;7.30;;;4.90;;
11113;SDS011;5610;52.154;9.198;2022-07-30T00:03:35;5.50;;;4.50;;
11113;SDS011;5610;52.154;9.198;2022-07-30T00:06:20;5.87;;;5.10;;
11113;SDS011;5610;52.154;9.198;2022-07-30T00:09:06;5.83;;;5.17;;
11113;SDS011;5610;52.154;9.198;2022-07-30T00:11:51;6.53;;;5.93;;
11113;SDS011;5610;52.154;9.198;2022-07-30T00:14:36;6.70;;;6.00;;
11113;SDS011;5610;52.154;9.198;2022-07-30T00:17:22;7.03;;;6.10;;
11113;SDS011;5610;52.154;9.198;2022-07-30T00:20:09;8.30;;;6.40;;
11113;SDS011;5610;52.154;9.198;2022-07-30T00:22:55;7.10;;;6.50;;
11113;SDS011;5610;52.154;9.198;2022-07-30T00:25:40;9.40;;;7.73;;
11113;SDS011;5610;52.154;9.198;2022-07-30T00:28:25;7.63;;;6.90;;
11113;SDS011;5610;52.154;9.198;2022-07-30T00:31:11;7.20;;;6.50;;
11113;SDS011;5610;52.154;9.198;2022-07-30T00:33:56;8.93;;;7.63;;
11113;SDS011;5610;52.154;9.198;2022-07-30T00:36:43;8.57;;;7.67;;
11113;SDS011;5610;52.154;9.198;2022-07-30T00:39:28;7.47;;;6.90;;
11113;SDS011;5610;52.154;9.198;2022-07-30T00:42:14;8.60;;;7.73;;
11113;SDS011;5610;52.154;9.198;2022-07-30T00:45:00;8.17;;;7.40;;
11113;SDS011;5610;52.154;9.198;2022-07-30T00:47:46;8.10;;;6.90;;
11113;SDS011;5610;52.154;9.198;2022-07-30T00:50:31;7.30;;;6.60;;
11113;SDS011;5610;52.154;9.198;2022-07-30T00:53:19;8.03;;;7.17;;
11113;SDS011;5610;52.154;9.198;2022-07-30T00:56:04;8.30;;;7.50;;
11113;SDS011;5610;52.154;9.198;2022-07-30T00:58:50;7.23;;;6.63;;
11113;SDS011;5610;52.154;9.198;2022-07-30T01:01:35;8.17;;;6.90;;
11113;SDS011;5610;52.154;9.198;2022-07-30T01:04:21;7.80;;;6.87;;
11113;SDS011;5610;52.154;9.198;2022-07-30T01:07:06;8.10;;;6.70;;
11113;SDS011;5610;52.154;9.198;2022-07-30T01:09:53;6.40;;;5.80;;
11113;SDS011;5610;52.154;9.198;2022-07-30T01:12:38;7.70;;;6.90;;
11113;SDS011;5610;52.154;9.198;2022-07-30T01:15:24;8.23;;;5.77;;
11113;SDS011;5610;52.154;9.198;2022-07-30T01:18:10;6.80;;;6.20;;
11113;SDS011;5610;52.154;9.198;2022-07-30T01:20:59;6.80;;;6.17;;
11113;SDS011;5610;52.154;9.198;2022-07-30T01:23:48;7.63;;;6.93;;
11113;SDS011;5610;52.154;9.198;2022-07-30T01:26:38;7.57;;;6.87;;
11113;SDS011;5610;52.154;9.198;2022-07-30T01:29:24;7.70;;;6.90;;
11113;SDS011;5610;52.154;9.198;2022-07-30T01:32:12;7.57;;;6.97;;
11113;SDS011;5610;52.154;9.198;2022-07-30T01:34:58;8.10;;;7.30;;
11113;SDS011;5610;52.154;9.198;2022-07-30T01:37:46;7.30;;;6.70;;
11113;SDS011;5610;52.154;9.198;2022-07-30T01:40:33;7.20;;;6.70;;
11113;SDS011;5610;52.154;9.198;2022-07-30T01:43:22;7.53;;;7.03;;
11113;SDS011;5610;52.154;9.198;2022-07-30T01:46:11;8.00;;;7.40;;
11113;SDS011;5610;52.154;9.198;2022-07-30T01:48:59;7.73;;;7.13;;
11113;SDS011;5610;52.154;9.198;2022-07-30T01:51:49;7.37;;;6.77;;
11113;SDS011;5610;52.154;9.198;2022-07-30T01:54:35;8.30;;;7.13;;
11113;SDS011;5610;52.154;9.198;2022-07-30T01:57:22;7.20;;;6.63;;
11113;SDS011;5610;52.154;9.198;2022-07-30T02:00:11;8.17;;;7.37;;
11113;SDS011;5610;52.154;9.198;2022-07-30T02:03:06;8.47;;;7.03;;
11113;SDS011;5610;52.154;9.198;2022-07-30T02:05:55;7.43;;;6.83;;
11113;SDS011;5610;52.154;9.198;2022-07-30T02:08:44;7.07;;;6.47;;
11113;SDS011;5610;52.154;9.198;2022-07-30T02:11:36;8.83;;;6.70;;
11113;SDS011;5610;52.154;9.198;2022-07-30T02:14:44;7.37;;;6.10;;
11113;SDS011;5610;52.154;9.198;2022-07-30T02:17:36;11.30;;;6.60;;
11113;SDS011;5610;52.154;9.198;2022-07-30T02:20:25;8.27;;;7.20;;
11113;SDS011;5610;52.154;9.198;2022-07-30T02:23:14;7.47;;;6.87;;
11113;SDS011;5610;52.154;9.198;2022-07-30T02:26:01;7.30;;;6.60;;
11113;SDS011;5610;52.154;9.198;2022-07-30T02:28:48;10.07;;;7.57;;
11113;SDS011;5610;52.154;9.198;2022-07-30T02:31:36;7.80;;;7.10;;
11113;SDS011;5610;52.154;9.198;2022-07-30T02:34:25;7.67;;;6.97;;
11113;SDS011;5610;52.154;9.198;2022-07-30T02:37:14;7.30;;;6.60;;
11113;SDS011;5610;52.154;9.198;2022-07-30T02:40:06;7.70;;;6.07;;
11113;SDS011;5610;52.154;9.198;2022-07-30T02:42:54;8.60;;;6.63;;
11113;SDS011;5610;52.154;9.198;2022-07-30T02:45:43;9.13;;;7.17;;
11113;SDS011;5610;52.154;9.198;2022-07-30T02:48:30;7.97;;;7.17;;
11113;SDS011;5610;52.154;9.198;2022-07-30T02:51:18;8.70;;;7.80;;
11113;SDS011;5610;52.154;9.198;2022-07-30T02:54:06;7.97;;;7.17;;
11113;SDS011;5610;52.154;9.198;2022-07-30T02:56:52;7.63;;;6.93;;
11113;SDS011;5610;52.154;9.198;2022-07-30T02:59:40;8.43;;;6.43;;
11113;SDS011;5610;52.154;9.198;2022-07-30T03:02:30;9.03;;;7.60;;
11113;SDS011;5610;52.154;9.198;2022-07-30T03:05:16;8.23;;;7.17;;
11113;SDS011;5610;52.154;9.198;2022-07-30T03:08:03;7.93;;;7.20;;
11113;SDS011;5610;52.154;9.198;2022-07-30T03:10:51;7.90;;;6.73;;
11113;SDS011;5610;52.154;9.198;2022-07-30T03:13:41;7.67;;;6.90;;
11113;SDS011;5610;52.154;9.198;2022-07-30T03:16:27;8.47;;;7.37;;
11113;SDS011;5610;52.154;9.198;2022-07-30T03:19:14;7.23;;;6.60;;
11113;SDS011;5610;52.154;9.198;2022-07-30T03:22:03;8.23;;;7.47;;
11113;SDS011;5610;52.154;9.198;2022-07-30T03:24:52;8.90;;;7.47;;
11113;SDS011;5610;52.154;9.198;2022-07-30T03:27:39;9.17;;;8.40;;
11113;SDS011;5610;52.154;9.198;2022-07-30T03:30:27;9.13;;;8.33;;
11113;SDS011;5610;52.154;9.198;2022-07-30T03:33:14;9.83;;;9.03;;
11113;SDS011;5610;52.154;9.198;2022-07-30T03:36:01;11.13;;;10.00;;
11113;SDS011;5610;52.154;9.198;2022-07-30T03:38:47;11.50;;;10.60;;
11113;SDS011;5610;52.154;9.198;2022-07-30T03:41:34;12.00;;;11.10;;
11113;SDS011;5610;52.154;9.198;2022-07-30T03:44:21;11.10;;;10.10;;
11113;SDS011;5610;52.154;9.198;2022-07-30T03:47:08;12.40;;;11.40;;
11113;SDS011;5610;52.154;9.198;2022-07-30T03:49:59;12.20;;;11.13;;
11113;SDS011;5610;52.154;9.198;2022-07-30T03:52:48;12.70;;;11.60;;
11113;SDS011;5610;52.154;9.198;2022-07-30T03:55:34;14.07;;;12.73;;
11113;SDS011;5610;52.154;9.198;2022-07-30T03:58:59;13.13;;;11.93;;
11113;SDS011;5610;52.154;9.198;2022-07-30T04:01:45;12.97;;;11.60;;
11113;SDS011;5610;52.154;9.198;2022-07-30T04:05:03;13.30;;;11.73;;
11113;SDS011;5610;52.154;9.198;2022-07-30T04:07:50;14.07;;;12.77;;
11113;SDS011;5610;52.154;9.198;2022-07-30T04:10:37;13.77;;;12.57;;
11113;SDS011;5610;52.154;9.198;2022-07-30T04:13:38;14.87;;;13.70;;
11113;SDS011;5610;52.154;9.198;2022-07-30T04:16:28;15.67;;;14.20;;
11113;SDS011;5610;52.154;9.198;2022-07-30T04:19:20;15.77;;;14.17;;
11113;SDS011;5610;52.154;9.198;2022-07-30T04:22:11;16.57;;;14.40;;
11113;SDS011;5610;52.154;9.198;2022-07-30T04:24:58;16.37;;;14.77;;
11113;SDS011;5610;52.154;9.198;2022-07-30T04:27:45;16.60;;;15.30;;
11113;SDS011;5610;52.154;9.198;2022-07-30T04:30:31;17.23;;;15.53;;
11113;SDS011;5610;52.154;9.198;2022-07-30T04:33:19;16.13;;;14.83;;
11113;SDS011;5610;52.154;9.198;2022-07-30T04:36:21;16.10;;;14.70;;
11113;SDS011;5610;52.154;9.198;2022-07-30T04:39:09;15.57;;;13.97;;
11113;SDS011;5610;52.154;9.198;2022-07-30T04:41:54;14.90;;;13.67;;
11113;SDS011;5610;52.154;9.198;2022-07-30T04:44:51;16.20;;;14.80;;
11113;SDS011;5610;52.154;9.198;2022-07-30T04:47:43;15.30;;;14.00;;
11113;SDS011;5610;52.154;9.198;2022-07-30T04:50:42;14.17;;;12.77;;
11113;SDS011;5610;52.154;9.198;2022-07-30T04:53:33;14.83;;;13.33;;
11113;SDS011;5610;52.154;9.198;2022-07-30T04:56:19;13.40;;;12.30;;
11113;SDS011;5610;52.154;9.198;2022-07-30T04:59:06;13.80;;;12.60;;
11113;SDS011;5610;52.154;9.198;2022-07-30T05:01:54;12.10;;;11.00;;
11113;SDS011;5610;52.154;9.198;2022-07-30T05:04:41;11.37;;;10.43;;
11113;SDS011;5610;52.154;9.198;2022-07-30T05:07:28;11.93;;;10.73;;
11113;SDS011;5610;52.154;9.198;2022-07-30T05:10:16;11.40;;;10.40;;
11113;SDS011;5610;52.154;9.198;2022-07-30T05:13:03;14.50;;;9.50;;
11113;SDS011;5610;52.154;9.198;2022-07-30T05:15:48;11.00;;;10.07;;
11113;SDS011;5610;52.154;9.198;2022-07-30T05:18:36;11.37;;;9.80;;
11113;SDS011;5610;52.154;9.198;2022-07-30T05:21:21;10.13;;;9.27;;
11113;SDS011;5610;52.154;9.198;2022-07-30T05:24:08;9.87;;;9.00;;
11113;SDS011;5610;52.154;9.198;2022-07-30T05:26:56;9.73;;;8.83;;
11113;SDS011;5610;52.154;9.198;2022-07-30T05:29:43;8.80;;;8.00;;
11113;SDS011;5610;52.154;9.198;2022-07-30T05:32:31;8.80;;;8.10;;
11113;SDS011;5610;52.154;9.198;2022-07-30T05:35:17;10.23;;;8.60;;
11113;SDS011;5610;52.154;9.198;2022-07-30T05:38:03;10.40;;;9.30;;
11113;SDS011;5610;52.154;9.198;2022-07-30T05:40:59;10.27;;;9.17;;
11113;SDS011;5610;52.154;9.198;2022-07-30T05:44:04;10.47;;;9.57;;
11113;SDS011;5610;52.154;9.198;2022-07-30T05:46:49;9.83;;;9.03;;
11113;SDS011;5610;52.154;9.198;2022-07-30T05:49:36;12.67;;;8.70;;
11113;SDS011;5610;52.154;9.198;2022-07-30T05:52:25;9.73;;;8.87;;
11113;SDS011;5610;52.154;9.198;2022-07-30T05:55:17;8.70;;;7.83;;
11113;SDS011;5610;52.154;9.198;2022-07-30T05:58:12;10.33;;;8.37;;
11113;SDS011;5610;52.154;9.198;2022-07-30T06:00:57;9.13;;;8.20;;
11113;SDS011;5610;52.154;9.198;2022-07-30T06:03:46;9.40;;;8.43;;
11113;SDS011;5610;52.154;9.198;2022-07-30T06:06:50;8.97;;;8.17;;
11113;SDS011;5610;52.154;9.198;2022-07-30T06:09:36;9.47;;;8.57;;
11113;SDS011;5610;52.154;9.198;2022-07-30T06:12:24;9.50;;;8.53;;
11113;SDS011;5610;52.154;9.198;2022-07-30T06:15:11;9.00;;;8.10;;
11113;SDS011;5610;52.154;9.198;2022-07-30T06:17:59;11.60;;;9.63;;
11113;SDS011;5610;52.154;9.198;2022-07-30T06:20:54;10.00;;;9.07;;
11113;SDS011;5610;52.154;9.198;2022-07-30T06:23:47;12.70;;;9.90;;
11113;SDS011;5610;52.154;9.198;2022-07-30T06:26:41;11.40;;;9.60;;
11113;SDS011;5610;52.154;9.198;2022-07-30T06:29:27;15.47;;;11.10;;
11113;SDS011;5610;52.154;9.198;2022-07-30T06:32:13;17.43;;;11.40;;
11113;SDS011;5610;52.154;9.198;2022-07-30T06:34:59;12.87;;;11.57;;
11113;SDS011;5610;52.154;9.198;2022-07-30T06:37:45;14.20;;;12.90;;
11113;SDS011;5610;52.154;9.198;2022-07-30T06:40:30;12.67;;;11.47;;
11113;SDS011;5610;52.154;9.198;2022-07-30T06:43:39;14.37;;;12.03;;
11113;SDS011;5610;52.154;9.198;2022-07-30T06:46:50;13.10;;;12.00;;
11113;SDS011;5610;52.154;9.198;2022-07-30T06:49:38;14.20;;;12.80;;
11113;SDS011;5610;52.154;9.198;2022-07-30T06:52:26;17.70;;;13.70;;
11113;SDS011;5610;52.154;9.198;2022-07-30T06:55:12;12.93;;;11.87;;
11113;SDS011;5610;52.154;9.198;2022-07-30T06:58:05;13.93;;;12.37;;
11113;SDS011;5610;52.154;9.198;2022-07-30T07:01:13;11.70;;;10.70;;
11113;SDS011;5610;52.154;9.198;2022-07-30T07:03:59;13.27;;;11.97;;
11113;SDS011;5610;52.154;9.198;2022-07-30T07:06:46;10.40;;;9.60;;
11113;SDS011;5610;52.154;9.198;2022-07-30T07:09:38;10.63;;;9.63;;
11113;SDS011;5610;52.154;9.198;2022-07-30T07:12:43;10.57;;;9.67;;
11113;SDS011;5610;52.154;9.198;2022-07-30T07:15:29;10.10;;;9.13;;
11113;SDS011;5610;52.154;9.198;2022-07-30T07:18:14;11.73;;;10.70;;
11113;SDS011;5610;52.154;9.198;2022-07-30T07:21:07;11.40;;;9.80;;
11113;SDS011;5610;52.154;9.198;2022-07-30T07:23:54;13.60;;;11.00;;
11113;SDS011;5610;52.154;9.198;2022-07-30T07:27:03;12.70;;;10.30;;
11113;SDS011;5610;52.154;9.198;2022-07-30T07:29:48;10.97;;;9.77;;
11113;SDS011;5610;52.154;9.198;2022-07-30T07:32:34;12.43;;;11.03;;
11113;SDS011;5610;52.154;9.198;2022-07-30T07:35:21;12.07;;;10.20;;
11113;SDS011;5610;52.154;9.198;2022-07-30T07:38:07;10.13;;;9.33;;
11113;SDS011;5610;52.154;9.198;2022-07-30T07:40:54;10.47;;;9.37;;
11113;SDS011;5610;52.154;9.198;2022-07-30T07:43:39;9.97;;;8.97;;
11113;SDS011;5610;52.154;9.198;2022-07-30T07:46:27;10.33;;;9.30;;
11113;SDS011;5610;52.154;9.198;2022-07-30T07:49:13;10.23;;;8.67;;
11113;SDS011;5610;52.154;9.198;2022-07-30T07:52:07;9.57;;;8.63;;
11113;SDS011;5610;52.154;9.198;2022-07-30T07:54:53;8.80;;;8.00;;
11113;SDS011;5610;52.154;9.198;2022-07-30T07:57:40;8.83;;;7.93;;
11113;SDS011;5610;52.154;9.198;2022-07-30T08:00:28;9.13;;;8.23;;
11113;SDS011;5610;52.154;9.198;2022-07-30T08:03:13;8.20;;;7.40;;
11113;SDS011;5610;52.154;9.198;2022-07-30T08:05:58;8.90;;;8.00;;
11113;SDS011;5610;52.154;9.198;2022-07-30T08:09:08;8.50;;;7.70;;
11113;SDS011;5610;52.154;9.198;2022-07-30T08:12:12;8.03;;;7.23;;
11113;SDS011;5610;52.154;9.198;2022-07-30T08:15:17;8.63;;;7.93;;
11113;SDS011;5610;52.154;9.198;2022-07-30T08:18:18;8.97;;;7.70;;
11113;SDS011;5610;52.154;9.198;2022-07-30T08:21:26;8.90;;;7.33;;
11113;SDS011;5610;52.154;9.198;2022-07-30T08:24:12;10.83;;;7.27;;
11113;SDS011;5610;52.154;9.198;2022-07-30T08:26:58;8.83;;;7.60;;
11113;SDS011;5610;52.154;9.198;2022-07-30T08:29:43;7.63;;;6.93;;
11113;SDS011;5610;52.154;9.198;2022-07-30T08:32:30;7.30;;;6.60;;
11113;SDS011;5610;52.154;9.198;2022-07-30T08:35:17;7.47;;;6.83;;
11113;SDS011;5610;52.154;9.198;2022-07-30T08:38:02;11.03;;;6.70;;
11113;SDS011;5610;52.154;9.198;2022-07-30T08:40:48;7.07;;;6.47;;
11113;SDS011;5610;52.154;9.198;2022-07-30T08:43:33;8.17;;;7.37;;
11113;SDS011;5610;52.154;9.198;2022-07-30T08:46:20;9.00;;;6.60;;
11113;SDS011;5610;52.154;9.198;2022-07-30T08:49:15;7.00;;;6.37;;
11113;SDS011;5610;52.154;9.198;2022-07-30T08:52:03;9.43;;;6.50;;
11113;SDS011;5610;52.154;9.198;2022-07-30T08:55:05;7.20;;;6.50;;
11113;SDS011;5610;52.154;9.198;2022-07-30T08:57:52;7.60;;;6.60;;
11113;SDS011;5610;52.154;9.198;2022-07-30T09:00:37;8.00;;;5.73;;
11113;SDS011;5610;52.154;9.198;2022-07-30T09:03:22;6.47;;;5.70;;
11113;SDS011;5610;52.154;9.198;2022-07-30T09:06:09;5.80;;;5.30;;
11113;SDS011;5610;52.154;9.198;2022-07-30T09:08:54;5.70;;;5.10;;
11113;SDS011;5610;52.154;9.198;2022-07-30T09:11:40;6.80;;;5.63;;
11113;SDS011;5610;52.154;9.198;2022-07-30T09:14:26;5.60;;;5.20;;
11113;SDS011;5610;52.154;9.198;2022-07-30T09:17:11;5.97;;;5.33;;
11113;SDS011;5610;52.154;9.198;2022-07-30T09:20:03;9.50;;;6.43;;
11113;SDS011;5610;52.154;9.198;2022-07-30T09:22:55;5.80;;;5.30;;
11113;SDS011;5610;52.154;9.198;2022-07-30T09:25:59;6.13;;;5.63;;
11113;SDS011;5610;52.154;9.198;2022-07-30T09:29:14;5.70;;;5.07;;
11113;SDS011;5610;52.154;9.198;2022-07-30T09:32:20;5.83;;;4.50;;
11113;SDS011;5610;52.154;9.198;2022-07-30T09:35:44;5.33;;;4.80;;
11113;SDS011;5610;52.154;9.198;2022-07-30T09:38:39;10.83;;;4.80;;
11113;SDS011;5610;52.154;9.198;2022-07-30T09:41:45;5.63;;;4.70;;
11113;SDS011;5610;52.154;9.198;2022-07-30T09:44:32;6.30;;;5.70;;
11113;SDS011;5610;52.154;9.198;2022-07-30T09:47:28;9.20;;;5.50;;
11113;SDS011;5610;52.154;9.198;2022-07-30T09:50:14;6.40;;;5.63;;
11113;SDS011;5610;52.154;9.198;2022-07-30T09:53:05;5.37;;;4.93;;
11113;SDS011;5610;52.154;9.198;2022-07-30T09:55:54;8.00;;;5.80;;
11113;SDS011;5610;52.154;9.198;2022-07-30T09:58:42;5.87;;;5.47;;
11113;SDS011;5610;52.154;9.198;2022-07-30T10:01:32;9.17;;;5.20;;
11113;SDS011;5610;52.154;9.198;2022-07-30T10:05:09;7.63;;;4.70;;
11113;SDS011;5610;52.154;9.198;2022-07-30T10:07:56;7.43;;;5.20;;
11113;SDS011;5610;52.154;9.198;2022-07-30T10:10:43;5.23;;;4.73;;
11113;SDS011;5610;52.154;9.198;2022-07-30T10:13:31;5.07;;;4.57;;
11113;SDS011;5610;52.154;9.198;2022-07-30T10:16:18;5.27;;;4.73;;
11113;SDS011;5610;52.154;9.198;2022-07-30T10:19:04;5.50;;;4.53;;
11113;SDS011;5610;52.154;9.198;2022-07-30T10:22:27;4.90;;;4.50;;
11113;SDS011;5610;52.154;9.198;2022-07-30T10:25:31;6.40;;;4.70;;
11113;SDS011;5610;52.154;9.198;2022-07-30T10:28:38;8.90;;;5.67;;
11113;SDS011;5610;52.154;9.198;2022-07-30T10:31:24;6.30;;;5.00;;
11113;SDS011;5610;52.154;9.198;2022-07-30T10:34:10;6.30;;;5.30;;
11113;SDS011;5610;52.154;9.198;2022-07-30T10:36:58;5.70;;;5.17;;
11113;SDS011;5610;52.154;9.198;2022-07-30T10:39:46;7.43;;;4.93;;
11113;SDS011;5610;52.154;9.198;2022-07-30T10:42:42;6.87;;;4.57;;
11113;SDS011;5610;52.154;9.198;2022-07-30T10:45:43;6.40;;;4.50;;
11113;SDS011;5610;52.154;9.198;2022-07-30T10:48:36;6.83;;;4.70;;
11113;SDS011;5610;52.154;9.198;2022-07-30T10:51:23;5.23;;;4.63;;
11113;SDS011;5610;52.154;9.198;2022-07-30T10:54:36;6.50;;;5.77;;
11113;SDS011;5610;52.154;9.198;2022-07-30T10:57:23;6.20;;;5.60;;
11113;SDS011;5610;52.154;9.198;2022-07-30T11:00:09;5.27;;;4.70;;
11113;SDS011;5610;52.154;9.198;2022-07-30T11:03:17;5.80;;;5.27;;
11113;SDS011;5610;52.154;9.198;2022-07-30T11:12:50;5.33;;;4.83;;
11113;SDS011;5610;52.154;9.198;2022-07-30T11:15:53;6.43;;;4.00;;
11113;SDS011;5610;52.154;9.198;2022-07-30T11:25:09;10.97;;;3.90;;
11113;SDS011;5610;52.154;9.198;2022-07-30T11:28:34;4.00;;;3.60;;
11113;SDS011;5610;52.154;9.198;2022-07-30T11:31:24;6.73;;;4.13;;
11113;SDS011;5610;52.154;9.198;2022-07-30T11:34:26;8.50;;;4.77;;
11113;SDS011;5610;52.154;9.198;2022-07-30T11:37:12;4.13;;;3.83;;
11113;SDS011;5610;52.154;9.198;2022-07-30T11:40:06;4.97;;;4.37;;
11113;SDS011;5610;52.154;9.198;2022-07-30T11:46:04;5.00;;;4.60;;
11113;SDS011;5610;52.154;9.198;2022-07-30T11:48:53;9.10;;;4.90;;
11113;SDS011;5610;52.154;9.198;2022-07-30T11:51:42;5.67;;;4.60;;
11113;SDS011;5610;52.154;9.198;2022-07-30T11:54:28;5.40;;;4.80;;
11113;SDS011;5610;52.154;9.198;2022-07-30T11:57:13;6.67;;;5.20;;
11113;SDS011;5610;52.154;9.198;2022-07-30T11:59:59;5.07;;;4.63;;
11113;SDS011;5610;52.154;9.198;2022-07-30T12:02:44;7.20;;;4.63;;
11113;SDS011;5610;52.154;9.198;2022-07-30T12:05:29;9.33;;;4.57;;
11113;SDS011;5610;52.154;9.198;2022-07-30T12:08:16;6.33;;;5.60;;
11113;SDS011;5610;52.154;9.198;2022-07-30T12:11:01;7.00;;;5.67;;
11113;SDS011;5610;52.154;9.198;2022-07-30T12:13:53;8.87;;;6.20;;
11113;SDS011;5610;52.154;9.198;2022-07-30T12:16:41;6.50;;;4.97;;
11113;SDS011;5610;52.154;9.198;2022-07-30T12:19:41;6.73;;;5.30;;
11113;SDS011;5610;52.154;9.198;2022-07-30T12:22:27;6.80;;;5.30;;
11113;SDS011;5610;52.154;9.198;2022-07-30T12:25:17;9.20;;;5.90;;
11113;SDS011;5610;52.154;9.198;2022-07-30T12:28:03;9.00;;;4.57;;
11113;SDS011;5610;52.154;9.198;2022-07-30T12:30:48;6.23;;;4.93;;
11113;SDS011;5610;52.154;9.198;2022-07-30T12:33:35;5.50;;;4.90;;
11113;SDS011;5610;52.154;9.198;2022-07-30T12:36:22;4.93;;;4.33;;
11113;SDS011;5610;52.154;9.198;2022-07-30T12:39:16;5.47;;;4.63;;
11113;SDS011;5610;52.154;9.198;2022-07-30T12:42:05;5.00;;;4.53;;
11113;SDS011;5610;52.154;9.198;2022-07-30T12:44:50;4.50;;;4.20;;
11113;SDS011;5610;52.154;9.198;2022-07-30T12:47:35;5.53;;;4.87;;
11113;SDS011;5610;52.154;9.198;2022-07-30T12:50:20;5.43;;;4.90;;
11113;SDS011;5610;52.154;9.198;2022-07-30T12:53:06;5.40;;;4.53;;
11113;SDS011;5610;52.154;9.198;2022-07-30T12:55:51;5.20;;;4.70;;
11113;SDS011;5610;52.154;9.198;2022-07-30T12:58:38;6.57;;;5.33;;
11113;SDS011;5610;52.154;9.198;2022-07-30T13:01:39;5.80;;;5.40;;
11113;SDS011;5610;52.154;9.198;2022-07-30T13:04:25;5.83;;;5.33;;
11113;SDS011;5610;52.154;9.198;2022-07-30T13:07:11;6.40;;;5.20;;
11113;SDS011;5610;52.154;9.198;2022-07-30T13:10:07;5.37;;;4.93;;
11113;SDS011;5610;52.154;9.198;2022-07-30T13:12:53;10.23;;;5.10;;
11113;SDS011;5610;52.154;9.198;2022-07-30T13:15:40;7.50;;;5.73;;
11113;SDS011;5610;52.154;9.198;2022-07-30T13:18:25;5.23;;;4.80;;
11113;SDS011;5610;52.154;9.198;2022-07-30T13:21:11;5.10;;;4.30;;
11113;SDS011;5610;52.154;9.198;2022-07-30T13:23:56;5.17;;;4.77;;
11113;SDS011;5610;52.154;9.198;2022-07-30T13:26:42;5.03;;;4.50;;
11113;SDS011;5610;52.154;9.198;2022-07-30T13:29:27;6.00;;;4.60;;
11113;SDS011;5610;52.154;9.198;2022-07-30T13:32:14;4.97;;;4.57;;
11113;SDS011;5610;52.154;9.198;2022-07-30T13:34:59;5.37;;;4.70;;
11113;SDS011;5610;52.154;9.198;2022-07-30T13:37:44;5.17;;;4.67;;
11113;SDS011;5610;52.154;9.198;2022-07-30T13:40:31;5.37;;;4.73;;
11113;SDS011;5610;52.154;9.198;2022-07-30T13:43:17;6.17;;;4.80;;
11113;SDS011;5610;52.154;9.198;2022-07-30T13:46:03;4.87;;;4.40;;
11113;SDS011;5610;52.154;9.198;2022-07-30T13:48:52;5.20;;;4.70;;
11113;SDS011;5610;52.154;9.198;2022-07-30T13:51:37;6.80;;;4.93;;
11113;SDS011;5610;52.154;9.198;2022-07-30T13:54:22;4.57;;;4.23;;
11113;SDS011;5610;52.154;9.198;2022-07-30T13:57:08;5.17;;;4.67;;
11113;SDS011;5610;52.154;9.198;2022-07-30T13:59:53;5.00;;;4.50;;
11113;SDS011;5610;52.154;9.198;2022-07-30T14:02:38;5.23;;;4.73;;
11113;SDS011;5610;52.154;9.198;2022-07-30T14:05:25;4.80;;;4.40;;
11113;SDS011;5610;52.154;9.198;2022-07-30T14:08:11;6.00;;;5.30;;
11113;SDS011;5610;52.154;9.198;2022-07-30T14:10:56;5.20;;;4.70;;
11113;SDS011;5610;52.154;9.198;2022-07-30T14:13:42;7.70;;;4.70;;
11113;SDS011;5610;52.154;9.198;2022-07-30T14:16:27;7.20;;;4.33;;
11113;SDS011;5610;52.154;9.198;2022-07-30T14:19:13;4.27;;;3.87;;
11113;SDS011;5610;52.154;9.198;2022-07-30T14:21:59;6.00;;;4.50;;
11113;SDS011;5610;52.154;9.198;2022-07-30T14:24:45;5.10;;;4.50;;
11113;SDS011;5610;52.154;9.198;2022-07-30T14:27:30;4.37;;;3.97;;
11113;SDS011;5610;52.154;9.198;2022-07-30T14:30:15;8.33;;;4.20;;
11113;SDS011;5610;52.154;9.198;2022-07-30T14:33:01;4.77;;;4.37;;
11113;SDS011;5610;52.154;9.198;2022-07-30T14:35:46;6.30;;;4.53;;
11113;SDS011;5610;52.154;9.198;2022-07-30T14:38:33;6.10;;;4.47;;
11113;SDS011;5610;52.154;9.198;2022-07-30T14:41:18;5.27;;;4.30;;
11113;SDS011;5610;52.154;9.198;2022-07-30T14:44:04;5.23;;;4.10;;
11113;SDS011;5610;52.154;9.198;2022-07-30T14:46:52;6.03;;;4.30;;
11113;SDS011;5610;52.154;9.198;2022-07-30T14:49:37;4.63;;;4.23;;
11113;SDS011;5610;52.154;9.198;2022-07-30T14:52:22;7.33;;;4.10;;
11113;SDS011;5610;52.154;9.198;2022-07-30T14:55:10;4.60;;;4.20;;
11113;SDS011;5610;52.154;9.198;2022-07-30T14:57:55;5.43;;;4.20;;
11113;SDS011;5610;52.154;9.198;2022-07-30T15:00:40;7.27;;;4.30;;
11113;SDS011;5610;52.154;9.198;2022-07-30T15:03:25;6.53;;;4.33;;
11113;SDS011;5610;52.154;9.198;2022-07-30T15:06:10;5.13;;;4.63;;
11113;SDS011;5610;52.154;9.198;2022-07-30T15:08:57;4.80;;;4.40;;
11113;SDS011;5610;52.154;9.198;2022-07-30T15:11:44;5.80;;;4.40;;
11113;SDS011;5610;52.154;9.198;2022-07-30T15:14:29;5.73;;;4.30;;
11113;SDS011;5610;52.154;9.198;2022-07-30T15:17:15;5.30;;;4.80;;
11113;SDS011;5610;52.154;9.198;2022-07-30T15:20:00;4.80;;;4.23;;
11113;SDS011;5610;52.154;9.198;2022-07-30T15:22:46;7.30;;;4.00;;
11113;SDS011;5610;52.154;9.198;2022-07-30T15:25:31;7.40;;;4.70;;
11113;SDS011;5610;52.154;9.198;2022-07-30T15:28:18;5.33;;;4.60;;
11113;SDS011;5610;52.154;9.198;2022-07-30T15:31:03;5.03;;;4.00;;
11113;SDS011;5610;52.154;9.198;2022-07-30T15:33:48;4.50;;;4.00;;
11113;SDS011;5610;52.154;9.198;2022-07-30T15:36:34;5.27;;;4.33;;
11113;SDS011;5610;52.154;9.198;2022-07-30T15:39:19;6.20;;;4.30;;
11113;SDS011;5610;52.154;9.198;2022-07-30T15:42:04;5.20;;;4.70;;
11113;SDS011;5610;52.154;9.198;2022-07-30T15:44:51;6.73;;;4.80;;
11113;SDS011;5610;52.154;9.198;2022-07-30T15:47:36;5.80;;;4.83;;
11113;SDS011;5610;52.154;9.198;2022-07-30T15:50:21;11.20;;;5.23;;
11113;SDS011;5610;52.154;9.198;2022-07-30T15:53:08;7.13;;;4.63;;
11113;SDS011;5610;52.154;9.198;2022-07-30T15:55:54;5.60;;;5.10;;
11113;SDS011;5610;52.154;9.198;2022-07-30T15:58:39;5.37;;;4.87;;
11113;SDS011;5610;52.154;9.198;2022-07-30T16:01:26;5.73;;;4.80;;
11113;SDS011;5610;52.154;9.198;2022-07-30T16:04:11;5.47;;;4.97;;
11113;SDS011;5610;52.154;9.198;2022-07-30T16:06:57;5.83;;;5.43;;
11113;SDS011;5610;52.154;9.198;2022-07-30T16:09:42;5.80;;;5.30;;
11113;SDS011;5610;52.154;9.198;2022-07-30T16:12:27;5.17;;;4.67;;
11113;SDS011;5610;52.154;9.198;2022-07-30T16:15:13;7.67;;;5.03;;
11113;SDS011;5610;52.154;9.198;2022-07-30T16:17:59;6.20;;;5.37;;
11113;SDS011;5610;52.154;9.198;2022-07-30T16:20:47;9.00;;;5.07;;
11113;SDS011;5610;52.154;9.198;2022-07-30T16:23:32;5.93;;;5.00;;
11113;SDS011;5610;52.154;9.198;2022-07-30T16:26:17;5.60;;;5.10;;
11113;SDS011;5610;52.154;9.198;2022-07-30T16:29:03;5.27;;;4.77;;
11113;SDS011;5610;52.154;9.198;2022-07-30T16:31:48;4.90;;;4.50;;
11113;SDS011;5610;52.154;9.198;2022-07-30T16:34:35;5.70;;;5.20;;
11113;SDS011;5610;52.154;9.198;2022-07-30T16:37:20;5.60;;;5.10;;
11113;SDS011;5610;52.154;9.198;2022-07-30T16:40:06;7.80;;;5.20;;
11113;SDS011;5610;52.154;9.198;2022-07-30T16:42:52;8.70;;;5.40;;
11113;SDS011;5610;52.154;9.198;2022-07-30T16:45:37;5.47;;;4.80;;
11113;SDS011;5610;52.154;9.198;2022-07-30T16:48:23;6.80;;;4.90;;
11113;SDS011;5610;52.154;9.198;2022-07-30T16:51:10;5.63;;;5.10;;
11113;SDS011;5610;52.154;9.198;2022-07-30T16:53:55;5.30;;;4.80;;
11113;SDS011;5610;52.154;9.198;2022-07-30T16:56:41;5.80;;;5.20;;
11113;SDS011;5610;52.154;9.198;2022-07-30T16:59:26;5.83;;;4.77;;
11113;SDS011;5610;52.154;9.198;2022-07-30T17:02:12;12.10;;;5.43;;
11113;SDS011;5610;52.154;9.198;2022-07-30T17:04:58;5.70;;;5.20;;
11113;SDS011;5610;52.154;9.198;2022-07-30T17:07:44;6.67;;;5.03;;
11113;SDS011;5610;52.154;9.198;2022-07-30T17:10:30;5.47;;;4.83;;
11113;SDS011;5610;52.154;9.198;2022-07-30T17:13:15;4.80;;;4.40;;
11113;SDS011;5610;52.154;9.198;2022-07-30T17:16:01;4.50;;;4.10;;
11113;SDS011;5610;52.154;9.198;2022-07-30T17:18:46;6.33;;;4.30;;
11113;SDS011;5610;52.154;9.198;2022-07-30T17:21:31;5.30;;;4.10;;
11113;SDS011;5610;52.154;9.198;2022-07-30T17:24:18;5.00;;;4.20;;